createdAt,value
2023-04-19T00:02:00.416Z,15.88
2023-04-19T00:04:26.991Z,16.05
2023-04-19T00:06:53.794Z,13.35
2023-04-19T00:09:20.274Z,16.63
2023-04-19T00:11:46.622Z,14.77
2023-04-19T00:14:13.088Z,13.75
2023-04-19T00:16:39.823Z,14.60
2023-04-19T00:19:06.939Z,15.27
2023-04-19T00:21:33.331Z,13.60
2023-04-19T00:23:59.712Z,15.95
2023-04-19T00:26:26.728Z,14.68
2023-04-19T00:28:53.143Z,16.83
2023-04-19T00:31:19.576Z,13.73
2023-04-19T00:33:46.049Z,13.65
2023-04-19T00:36:12.367Z,14.27
2023-04-19T00:38:38.689Z,15.88
2023-04-19T00:41:05.109Z,15.32
2023-04-19T00:43:31.512Z,14.55
2023-04-19T00:45:58.140Z,13.85
2023-04-19T00:48:25.643Z,13.15
2023-04-19T00:50:52.084Z,15.55
2023-04-19T00:53:18.688Z,20.08
2023-04-19T00:55:45.419Z,16.05
2023-04-19T00:58:11.969Z,14.35
2023-04-19T01:00:38.623Z,14.25
2023-04-19T01:03:05.210Z,13.88
2023-04-19T01:05:31.865Z,14.77
2023-04-19T01:07:58.331Z,16.15
2023-04-19T01:10:25.043Z,17.02
2023-04-19T01:12:51.660Z,16.80
2023-04-19T01:15:18.234Z,14.10
2023-04-19T01:17:44.651Z,16.08
2023-04-19T01:20:11.619Z,15.40
2023-04-19T01:22:38.286Z,18.05
2023-04-19T01:25:05.300Z,19.65
2023-04-19T01:27:31.829Z,16.00
2023-04-19T01:29:58.245Z,18.35
2023-04-19T01:32:26.359Z,16.50
2023-04-19T01:34:53.285Z,20.63
2023-04-19T01:37:19.642Z,17.63
2023-04-19T01:39:46.397Z,18.40
2023-04-19T01:42:12.779Z,17.30
2023-04-19T01:44:39.134Z,16.77
2023-04-19T01:47:05.811Z,16.50
2023-04-19T01:49:32.532Z,21.10
2023-04-19T01:51:58.898Z,15.77
2023-04-19T01:54:25.286Z,17.67
2023-04-19T01:56:51.741Z,16.77
2023-04-19T01:59:18.102Z,16.75
2023-04-19T02:01:44.530Z,20.27
2023-04-19T02:04:11.201Z,19.88
2023-04-19T02:06:37.803Z,20.00
2023-04-19T02:09:04.392Z,17.48
2023-04-19T02:11:30.857Z,18.08
2023-04-19T02:13:57.152Z,20.52
2023-04-19T02:16:23.617Z,16.50
2023-04-19T02:18:50.011Z,18.17
2023-04-19T02:21:16.544Z,16.02
2023-04-19T02:23:42.880Z,18.05
2023-04-19T02:26:09.221Z,19.63
2023-04-19T02:28:35.654Z,17.20
2023-04-19T02:31:05.839Z,17.08
2023-04-19T02:33:32.535Z,16.83
2023-04-19T02:35:59.131Z,16.60
2023-04-19T02:38:25.670Z,16.70
2023-04-19T02:40:52.074Z,18.13
2023-04-19T02:43:18.551Z,17.02
2023-04-19T02:45:45.012Z,20.42
2023-04-19T02:48:11.423Z,18.75
2023-04-19T02:50:38.753Z,17.13
2023-04-19T02:53:05.403Z,17.63
2023-04-19T02:55:31.770Z,17.05
2023-04-19T02:57:58.354Z,17.70
2023-04-19T03:00:24.733Z,19.08
2023-04-19T03:02:51.258Z,17.35
2023-04-19T03:05:18.068Z,15.75
2023-04-19T03:07:44.774Z,17.00
2023-04-19T03:10:11.302Z,17.63
2023-04-19T03:12:37.721Z,16.35
2023-04-19T03:15:04.682Z,16.73
2023-04-19T03:17:31.227Z,15.13
2023-04-19T03:19:57.800Z,16.08
2023-04-19T03:22:24.208Z,16.45
2023-04-19T03:24:50.684Z,15.02
2023-04-19T03:27:17.060Z,16.50
2023-04-19T03:29:43.565Z,13.82
2023-04-19T03:32:09.926Z,15.73
2023-04-19T03:34:36.357Z,17.67
2023-04-19T03:37:02.774Z,12.57
2023-04-19T03:39:29.161Z,14.32
2023-04-19T03:41:55.512Z,16.95
2023-04-19T03:44:21.964Z,15.18
2023-04-19T03:46:48.880Z,16.83
2023-04-19T03:49:15.331Z,14.30
2023-04-19T03:51:41.742Z,16.80
2023-04-19T03:54:08.139Z,14.63
2023-04-19T03:56:34.522Z,14.20
2023-04-19T03:59:00.978Z,14.57
2023-04-19T04:01:28.005Z,14.05
2023-04-19T04:03:54.729Z,16.60
2023-04-19T04:06:21.241Z,17.52
2023-04-19T04:08:47.705Z,14.52
2023-04-19T04:11:14.292Z,16.13
2023-04-19T04:13:40.750Z,16.95
2023-04-19T04:16:07.466Z,15.38
2023-04-19T04:18:33.819Z,13.77
2023-04-19T04:21:00.856Z,14.38
2023-04-19T04:23:28.274Z,12.40
2023-04-19T04:26:01.146Z,13.80
2023-04-19T04:28:28.368Z,14.95
2023-04-19T04:30:57.777Z,14.52
2023-04-19T04:33:25.814Z,14.15
2023-04-19T04:35:53.351Z,13.05
2023-04-19T04:38:24.672Z,14.20
2023-04-19T04:40:56.067Z,16.17
2023-04-19T04:43:25.739Z,13.73
2023-04-19T04:45:52.255Z,13.43
2023-04-19T04:48:18.734Z,11.98
2023-04-19T04:50:45.269Z,13.13
2023-04-19T04:53:14.940Z,14.52
2023-04-19T04:55:41.510Z,13.88
2023-04-19T04:58:07.861Z,14.32
2023-04-19T05:00:34.529Z,14.23
2023-04-19T05:03:03.120Z,12.68
2023-04-19T05:05:29.889Z,12.82
2023-04-19T05:07:56.332Z,14.75
2023-04-19T05:10:22.698Z,13.60
2023-04-19T05:12:49.064Z,13.43
2023-04-19T05:15:15.473Z,12.98
2023-04-19T05:17:43.205Z,15.40
2023-04-19T05:20:09.957Z,16.05
2023-04-19T05:22:36.573Z,14.50
2023-04-19T05:25:03.144Z,12.95
2023-04-19T05:27:29.505Z,15.35
2023-04-19T05:29:55.822Z,11.55
2023-04-19T05:32:22.465Z,13.68
2023-04-19T05:34:49.079Z,14.73
2023-04-19T05:37:15.527Z,14.70
2023-04-19T05:39:43.628Z,12.23
2023-04-19T05:42:11.063Z,11.70
2023-04-19T05:44:37.425Z,10.57
2023-04-19T05:47:03.974Z,13.70
2023-04-19T05:49:30.377Z,12.77
2023-04-19T05:51:56.986Z,11.63
2023-04-19T05:54:23.512Z,12.00
2023-04-19T05:56:49.966Z,12.68
2023-04-19T05:59:16.468Z,13.25
2023-04-19T06:01:43.064Z,14.25
2023-04-19T06:04:09.724Z,13.02
2023-04-19T06:06:37.909Z,11.23
2023-04-19T06:09:04.471Z,11.15
2023-04-19T06:11:38.873Z,10.82
2023-04-19T06:14:06.128Z,16.25
2023-04-19T06:16:32.648Z,11.68
2023-04-19T06:18:59.108Z,11.80
2023-04-19T06:21:25.540Z,10.35
2023-04-19T06:23:51.934Z,10.00
2023-04-19T06:26:18.299Z,9.95
2023-04-19T06:28:44.655Z,9.98
2023-04-19T06:31:12.168Z,11.00
2023-04-19T06:33:38.757Z,9.50
2023-04-19T06:36:05.927Z,13.18
2023-04-19T06:38:32.433Z,8.15
2023-04-19T06:40:58.770Z,10.63
2023-04-19T06:43:25.652Z,9.63
2023-04-19T06:46:01.338Z,12.50
2023-04-19T06:48:28.030Z,8.38
2023-04-19T06:50:55.021Z,7.60
2023-04-19T06:53:21.489Z,8.02
2023-04-19T06:55:47.935Z,9.07
2023-04-19T06:58:14.339Z,8.38
2023-04-19T07:00:40.842Z,7.57
2023-04-19T07:03:07.345Z,7.75
2023-04-19T07:05:33.869Z,10.57
2023-04-19T07:08:00.246Z,8.82
2023-04-19T07:10:26.651Z,9.82
2023-04-19T07:12:53.022Z,9.10
2023-04-19T07:15:19.470Z,8.57
2023-04-19T07:17:46.841Z,10.23
2023-04-19T07:20:13.234Z,8.65
2023-04-19T07:22:39.642Z,11.15
2023-04-19T07:25:06.374Z,9.15
2023-04-19T07:27:32.759Z,8.60
2023-04-19T07:29:59.149Z,7.45
2023-04-19T07:32:25.731Z,7.68
2023-04-19T07:34:52.890Z,9.52
2023-04-19T07:37:19.780Z,8.00
2023-04-19T07:39:46.177Z,8.77
2023-04-19T07:42:12.477Z,8.30
2023-04-19T07:44:38.792Z,6.35
2023-04-19T07:47:06.128Z,7.00
2023-04-19T07:49:34.161Z,8.57
2023-04-19T07:52:04.164Z,8.75
2023-04-19T07:54:31.276Z,8.30
2023-04-19T07:56:58.995Z,7.05
2023-04-19T07:59:25.694Z,7.18
2023-04-19T08:01:52.216Z,8.18
2023-04-19T08:04:20.570Z,7.35
2023-04-19T08:06:47.715Z,7.47
2023-04-19T08:09:14.532Z,7.13
2023-04-19T08:11:41.070Z,8.32
2023-04-19T08:14:15.164Z,7.00
2023-04-19T08:19:17.747Z,7.75
2023-04-19T08:21:44.258Z,6.45
2023-04-19T08:24:10.772Z,13.07
2023-04-19T08:26:39.012Z,6.10
2023-04-19T08:29:05.427Z,7.53
2023-04-19T08:31:32.110Z,6.85
2023-04-19T08:34:00.236Z,8.98
2023-04-19T08:36:39.219Z,7.65
2023-04-19T08:39:15.063Z,6.22
2023-04-19T08:41:56.070Z,6.05
2023-04-19T08:44:36.476Z,7.75
2023-04-19T08:47:04.409Z,6.15
2023-04-19T08:49:34.552Z,5.30
2023-04-19T08:52:02.369Z,7.93
2023-04-19T08:54:32.208Z,6.75
2023-04-19T08:56:59.913Z,5.82
2023-04-19T08:59:26.451Z,6.53
2023-04-19T09:01:52.834Z,5.10
2023-04-19T09:04:35.519Z,5.30
2023-04-19T09:07:03.150Z,4.85
2023-04-19T09:12:00.084Z,6.47
2023-04-19T09:14:27.744Z,5.65
2023-04-19T09:16:54.616Z,5.78
2023-04-19T09:19:24.849Z,6.32
2023-04-19T09:21:53.943Z,4.63
2023-04-19T09:27:07.828Z,6.95
2023-04-19T09:29:34.305Z,5.22
2023-04-19T09:32:00.806Z,6.18
2023-04-19T09:34:29.639Z,7.35
2023-04-19T09:37:08.523Z,5.82
2023-04-19T09:39:39.738Z,6.25
2023-04-19T09:42:07.069Z,5.55
2023-04-19T09:45:09.442Z,6.25
2023-04-19T09:47:26.418Z,6.28
2023-04-19T09:50:19.226Z,7.65
2023-04-19T09:52:50.017Z,5.30
2023-04-19T09:55:26.906Z,4.90
2023-04-19T09:57:53.892Z,5.05
2023-04-19T10:00:21.712Z,5.45
2023-04-19T10:02:55.769Z,5.95
2023-04-19T10:05:24.059Z,5.53
2023-04-19T10:07:53.706Z,5.10
2023-04-19T10:10:27.633Z,6.57
2023-04-19T10:13:21.418Z,5.20
2023-04-19T10:15:54.173Z,5.20
2023-04-19T10:18:25.019Z,4.57
2023-04-19T10:21:00.861Z,6.50
2023-04-19T10:23:28.940Z,5.70
2023-04-19T10:26:00.425Z,6.70
2023-04-19T10:28:30.876Z,5.55
2023-04-19T10:31:01.648Z,4.50
2023-04-19T10:33:31.878Z,7.63
2023-04-19T10:35:59.400Z,6.70
2023-04-19T10:38:35.675Z,4.25
2023-04-19T10:41:03.749Z,7.15
2023-04-19T10:43:34.508Z,6.22
2023-04-19T10:46:06.863Z,6.40
2023-04-19T10:48:37.846Z,4.88
2023-04-19T10:51:35.617Z,5.05
2023-04-19T10:54:09.861Z,5.47
2023-04-19T10:56:36.141Z,6.05
2023-04-19T10:59:02.664Z,5.72
2023-04-19T11:01:43.033Z,5.00
2023-04-19T11:04:14.287Z,5.95
2023-04-19T11:06:52.711Z,6.40
2023-04-19T11:09:35.707Z,5.10
2023-04-19T11:12:09.806Z,5.13
2023-04-19T11:14:41.297Z,5.30
2023-04-19T11:17:27.832Z,5.60
2023-04-19T11:19:56.360Z,5.50
2023-04-19T11:22:40.406Z,5.63
2023-04-19T11:25:21.217Z,5.78
2023-04-19T11:27:52.840Z,6.03
2023-04-19T11:30:22.296Z,9.70
2023-04-19T11:32:53.428Z,5.40
2023-04-19T11:35:22.069Z,6.28
2023-04-19T11:37:48.629Z,7.57
2023-04-19T11:40:19.259Z,8.27
2023-04-19T11:42:46.165Z,6.72
2023-04-19T11:45:33.198Z,7.47
2023-04-19T11:48:04.180Z,5.50
2023-04-19T11:50:43.286Z,6.93
2023-04-19T11:53:28.752Z,5.75
2023-04-19T11:55:57.579Z,6.35
2023-04-19T11:58:25.143Z,5.32
2023-04-19T12:00:51.631Z,7.15
2023-04-19T12:03:25.771Z,7.57
2023-04-19T12:05:57.624Z,6.97
2023-04-19T12:08:34.715Z,5.45
2023-04-19T12:11:03.314Z,6.20
2023-04-19T12:13:31.263Z,10.60
2023-04-19T12:15:57.957Z,7.57
2023-04-19T12:18:24.994Z,5.82
2023-04-19T12:23:20.582Z,8.93
2023-04-19T12:25:48.274Z,6.45
2023-04-19T12:28:15.940Z,8.45
2023-04-19T12:30:42.438Z,8.07
2023-04-19T12:33:09.248Z,6.15
2023-04-19T12:35:36.058Z,7.45
2023-04-19T12:38:03.296Z,6.63
2023-04-19T12:40:30.718Z,5.78
2023-04-19T12:42:57.291Z,6.55
2023-04-19T12:45:23.937Z,7.00
2023-04-19T12:47:50.618Z,7.90
2023-04-19T12:50:17.209Z,9.50
2023-04-19T12:52:45.418Z,10.73
2023-04-19T12:55:12.053Z,9.32
2023-04-19T12:57:38.530Z,7.13
2023-04-19T13:00:07.262Z,6.90
2023-04-19T13:02:34.528Z,6.45
2023-04-19T13:05:01.163Z,8.48
2023-04-19T13:07:28.477Z,7.05
2023-04-19T13:09:56.731Z,7.32
2023-04-19T13:12:23.870Z,7.00
2023-04-19T13:14:52.085Z,6.35
2023-04-19T13:17:19.564Z,5.88
2023-04-19T13:19:46.115Z,8.02
2023-04-19T13:22:12.467Z,6.82
2023-04-19T13:24:38.894Z,7.53
2023-04-19T13:27:08.288Z,6.32
2023-04-19T13:29:35.493Z,11.32
2023-04-19T13:32:01.870Z,5.60
2023-04-19T13:34:28.422Z,8.07
2023-04-19T13:36:55.320Z,5.75
2023-04-19T13:39:22.906Z,6.07
2023-04-19T13:41:49.233Z,6.63
2023-04-19T13:44:15.801Z,6.53
2023-04-19T13:46:42.517Z,5.55
2023-04-19T13:49:09.103Z,8.65
2023-04-19T13:51:48.914Z,5.82
2023-04-19T13:54:18.313Z,6.72
2023-04-19T13:56:45.214Z,6.35
2023-04-19T13:59:11.547Z,6.22
2023-04-19T14:01:38.668Z,6.13
2023-04-19T14:04:05.434Z,5.80
2023-04-19T14:06:32.677Z,5.00
2023-04-19T14:08:58.997Z,6.60
2023-04-19T14:11:25.843Z,5.45
2023-04-19T14:13:53.287Z,5.90
2023-04-19T14:16:20.669Z,6.60
2023-04-19T14:18:47.153Z,4.88
2023-04-19T14:21:14.547Z,4.93
2023-04-19T14:23:40.904Z,5.32
2023-04-19T14:26:07.636Z,6.82
2023-04-19T14:28:34.105Z,5.18
2023-04-19T14:31:00.480Z,7.00
2023-04-19T14:33:26.932Z,6.25
2023-04-19T14:35:53.368Z,5.53
2023-04-19T14:38:19.693Z,7.97
2023-04-19T14:40:46.534Z,8.27
2023-04-19T14:43:15.231Z,6.95
2023-04-19T14:45:41.905Z,5.63
2023-04-19T14:50:34.592Z,6.30
2023-04-19T14:53:00.900Z,6.03
2023-04-19T14:55:27.814Z,5.97
2023-04-19T14:57:54.595Z,6.60
2023-04-19T15:00:21.246Z,5.80
2023-04-19T15:05:14.461Z,12.25
2023-04-19T15:07:40.901Z,9.63
2023-04-19T15:10:07.820Z,7.97
2023-04-19T15:12:34.193Z,5.43
2023-04-19T15:15:00.740Z,6.35
2023-04-19T15:17:27.353Z,9.48
2023-04-19T15:19:53.756Z,5.97
2023-04-19T15:22:20.124Z,8.13
2023-04-19T15:24:46.494Z,6.57
2023-04-19T15:27:12.860Z,5.38
2023-04-19T15:29:40.049Z,9.00
2023-04-19T15:32:06.505Z,8.07
2023-04-19T15:34:32.932Z,6.28
2023-04-19T15:36:59.502Z,6.45
2023-04-19T15:39:25.971Z,7.25
2023-04-19T15:41:52.358Z,8.65
2023-04-19T15:44:18.744Z,7.40
2023-04-19T15:46:45.241Z,6.55
2023-04-19T15:49:11.669Z,8.98
2023-04-19T15:51:38.954Z,9.05
2023-04-19T15:54:05.911Z,7.68
2023-04-19T15:56:32.424Z,7.80
2023-04-19T15:58:59.444Z,8.00
2023-04-19T16:01:26.739Z,7.30
2023-04-19T16:03:53.344Z,7.32
2023-04-19T16:06:19.907Z,8.85
2023-04-19T16:08:46.219Z,7.07
2023-04-19T16:11:12.611Z,8.05
2023-04-19T16:13:38.976Z,9.77
2023-04-19T16:16:06.000Z,8.15
2023-04-19T16:20:58.798Z,8.20
2023-04-19T16:23:25.480Z,7.18
2023-04-19T16:25:52.667Z,7.45
2023-04-19T16:28:19.790Z,6.53
2023-04-19T16:30:47.279Z,7.72
2023-04-19T16:33:15.214Z,6.95
2023-04-19T16:35:41.717Z,10.75
2023-04-19T16:38:08.120Z,9.95
2023-04-19T16:40:34.530Z,7.55
2023-04-19T16:43:00.907Z,7.40
2023-04-19T16:45:27.348Z,7.55
2023-04-19T16:47:53.867Z,6.03
2023-04-19T16:50:20.512Z,6.78
2023-04-19T16:52:46.890Z,10.93
2023-04-19T16:55:15.010Z,9.27
2023-04-19T16:57:41.636Z,7.32
2023-04-19T17:00:09.565Z,7.68
2023-04-19T17:02:36.072Z,9.27
2023-04-19T17:05:02.726Z,9.20
2023-04-19T17:07:29.287Z,7.78
2023-04-19T17:09:56.187Z,7.50
2023-04-19T17:12:22.653Z,7.25
2023-04-19T17:14:48.983Z,6.45
2023-04-19T17:17:15.405Z,8.80
2023-04-19T17:19:41.842Z,7.30
2023-04-19T17:22:08.149Z,7.05
2023-04-19T17:24:34.556Z,11.00
2023-04-19T17:27:00.927Z,6.43
2023-04-19T17:29:27.467Z,8.32
2023-04-19T17:31:54.062Z,10.73
2023-04-19T17:34:20.561Z,6.38
2023-04-19T17:36:46.892Z,7.22
2023-04-19T17:39:13.265Z,6.53
2023-04-19T17:41:39.726Z,7.57
2023-04-19T17:44:06.065Z,6.10
2023-04-19T17:46:32.397Z,10.95
2023-04-19T17:48:58.805Z,6.38
2023-04-19T17:51:25.195Z,6.45
2023-04-19T17:53:51.710Z,7.30
2023-04-19T17:56:18.169Z,5.95
2023-04-19T17:58:44.503Z,6.78
2023-04-19T18:01:10.860Z,5.90
2023-04-19T18:03:37.962Z,7.70
2023-04-19T18:06:04.568Z,7.88
2023-04-19T18:08:31.023Z,6.85
2023-04-19T18:10:57.365Z,6.75
2023-04-19T18:13:23.726Z,5.90
2023-04-19T18:15:50.202Z,10.07
2023-04-19T18:18:16.597Z,5.93
2023-04-19T18:20:42.963Z,8.02
2023-04-19T18:23:09.358Z,8.15
2023-04-19T18:25:36.828Z,10.13
2023-04-19T18:30:30.651Z,12.77
2023-04-19T18:32:58.775Z,9.73
2023-04-19T18:35:25.252Z,7.82
2023-04-19T18:37:51.569Z,5.60
2023-04-19T18:40:18.864Z,8.55
2023-04-19T18:42:45.618Z,13.80
2023-04-19T18:45:12.275Z,13.52
2023-04-19T18:47:38.670Z,8.38
2023-04-19T18:50:06.532Z,12.95
2023-04-19T18:52:36.281Z,11.57
2023-04-19T18:55:03.797Z,10.15
2023-04-19T18:57:34.723Z,9.23
2023-04-19T19:00:02.063Z,9.57
2023-04-19T19:02:28.534Z,11.90
2023-04-19T19:04:57.978Z,12.15
2023-04-19T19:07:36.375Z,11.07
2023-04-19T19:10:18.665Z,12.85
2023-04-19T19:12:47.391Z,8.00
2023-04-19T19:15:14.269Z,10.52
2023-04-19T19:17:40.923Z,10.60
2023-04-19T19:20:08.049Z,10.70
2023-04-19T19:22:34.870Z,8.60
2023-04-19T19:25:01.454Z,14.18
2023-04-19T19:27:28.079Z,13.40
2023-04-19T19:29:54.431Z,8.15
2023-04-19T19:32:20.949Z,7.97
2023-04-19T19:37:17.420Z,10.57
2023-04-19T19:39:45.019Z,10.55
2023-04-19T19:42:16.389Z,11.32
2023-04-19T19:44:43.228Z,6.85
2023-04-19T19:47:10.981Z,8.80
2023-04-19T19:52:07.197Z,5.68
2023-04-19T19:54:33.691Z,5.47
2023-04-19T19:57:52.904Z,8.27
2023-04-19T19:59:51.626Z,9.63
2023-04-19T20:02:22.246Z,9.10
2023-04-19T20:04:49.179Z,7.07
2023-04-19T20:09:45.459Z,10.77
2023-04-19T20:12:13.293Z,8.57
2023-04-19T20:14:39.971Z,9.02
2023-04-19T20:17:06.482Z,8.82
2023-04-19T20:19:32.872Z,9.27
2023-04-19T20:22:00.251Z,7.60
2023-04-19T20:24:26.709Z,7.25
2023-04-19T20:26:53.089Z,7.32
2023-04-19T20:29:19.459Z,7.35
2023-04-19T20:31:45.898Z,11.43
2023-04-19T20:34:12.212Z,9.88
2023-04-19T20:36:39.392Z,6.82
2023-04-19T20:39:09.357Z,7.43
2023-04-19T20:41:35.934Z,6.75
2023-04-19T20:44:02.351Z,9.55
2023-04-19T20:46:28.697Z,6.60
2023-04-19T20:48:55.461Z,6.50
2023-04-19T20:51:21.958Z,7.03
2023-04-19T20:53:48.599Z,8.63
2023-04-19T20:56:14.944Z,7.68
2023-04-19T20:58:41.267Z,7.38
2023-04-19T21:01:07.872Z,7.30
2023-04-19T21:03:34.327Z,8.90
2023-04-19T21:06:00.736Z,9.90
2023-04-19T21:08:27.057Z,6.65
2023-04-19T21:10:53.430Z,8.18
2023-04-19T21:13:19.829Z,8.02
2023-04-19T21:15:46.242Z,11.35
2023-04-19T21:18:12.586Z,8.52
2023-04-19T21:20:39.428Z,7.05
2023-04-19T21:23:05.893Z,9.48
2023-04-19T21:25:32.256Z,5.85
2023-04-19T21:27:58.643Z,6.40
2023-04-19T21:30:25.716Z,6.90
2023-04-19T21:32:52.596Z,8.65
2023-04-19T21:35:19.484Z,8.35
2023-04-19T21:37:45.890Z,7.78
2023-04-19T21:40:12.435Z,8.18
2023-04-19T21:42:38.740Z,5.75
2023-04-19T21:45:05.812Z,7.15
2023-04-19T21:47:32.295Z,6.75
2023-04-19T21:49:58.661Z,11.50
2023-04-19T21:52:25.001Z,7.70
2023-04-19T21:54:51.411Z,9.55
2023-04-19T21:57:21.845Z,5.45
2023-04-19T21:59:48.214Z,6.75
2023-04-19T22:02:14.705Z,6.32
2023-04-19T22:04:41.574Z,7.72
2023-04-19T22:07:08.112Z,6.53
2023-04-19T22:09:34.509Z,8.00
2023-04-19T22:12:01.586Z,10.80
2023-04-19T22:14:28.263Z,8.25
2023-04-19T22:16:54.860Z,5.97
2023-04-19T22:19:23.239Z,5.95
2023-04-19T22:21:49.770Z,8.73
2023-04-19T22:24:16.439Z,7.30
2023-04-19T22:26:42.807Z,6.75
2023-04-19T22:29:09.152Z,6.10
2023-04-19T22:31:35.826Z,7.07
2023-04-19T22:34:02.227Z,6.63
2023-04-19T22:36:28.597Z,7.28
2023-04-19T22:38:54.922Z,7.03
2023-04-19T22:41:21.255Z,6.15
2023-04-19T22:43:47.638Z,9.07
2023-04-19T22:46:14.081Z,11.63
2023-04-19T22:48:40.811Z,7.32
2023-04-19T22:51:07.409Z,6.07
2023-04-19T22:53:33.733Z,6.97
2023-04-19T22:56:00.139Z,9.20
2023-04-19T22:58:26.528Z,6.32
2023-04-19T23:00:53.005Z,6.20
2023-04-19T23:03:19.611Z,6.18
2023-04-19T23:05:47.217Z,9.20
2023-04-19T23:08:15.108Z,8.88
2023-04-19T23:13:10.319Z,6.05
2023-04-19T23:18:04.262Z,7.13
2023-04-19T23:20:30.881Z,6.25
2023-04-19T23:22:57.285Z,6.75
2023-04-19T23:25:24.979Z,6.90
2023-04-19T23:27:51.572Z,5.53
2023-04-19T23:30:18.363Z,6.65
2023-04-19T23:32:44.846Z,6.65
2023-04-19T23:35:11.290Z,6.55
2023-04-19T23:37:37.982Z,6.43
2023-04-19T23:40:06.172Z,6.03
2023-04-19T23:42:32.647Z,6.80
2023-04-19T23:44:59.345Z,6.13
2023-04-19T23:47:25.993Z,10.23
2023-04-19T23:49:52.314Z,6.55
2023-04-19T23:52:22.700Z,7.95
2023-04-19T23:54:49.654Z,7.65
2023-04-19T23:57:16.020Z,6.95
2023-04-19T23:59:42.408Z,8.13
